Latest Weather Observations for Lucas Heights

IDN60901

Issued at 7:45 pm EDT Saturday 1 November 2014 (issued every 10 minutes, with the page automatically refreshed every 10 minutes)

About weather observations | Map of Sydney area stations | Latest observations for Sydney area | Other Formats
Station Details ID: 066023 Name: LUCAS HEIGHTS AWS Lat: -34.05 Lon: 150.98 Height: 140.0 m
Data from the previous 72 hours. | See also: Recent months for locations in New South Wales
Date/Time
EDT
Tmp

°C
App
Tmp
°C
Dew
Point
°C
Rel
Hum
%
Delta-T

°C
Wind Press
QNH
hPa
Press
MSL
hPa
Rain
since
9 am
mm
Dir
 
Spd
km/h
Gust
km/h
Spd
kts
Gust
kts
01/07:30pm 23.4 17.7 12.9 51 6.1 SW 35 54 19 29 1004.1 - 6.7
01/07:15pm 24.7 19.6 13.2 48 6.7 SW 32 52 17 28 1003.2 - 6.7
01/07:00pm 25.5 21.7 13.5 47 7.1 SW 26 44 14 24 1002.6 - 6.7
01/06:45pm 26.0 22.6 13.7 46 7.3 SW 24 43 13 23 1001.8 - 6.7
01/06:30pm 26.4 24.0 14.5 48 7.2 SW 20 39 11 21 1001.1 - 6.7
01/06:15pm 25.9 22.5 14.7 50 6.7 SW 26 37 14 20 1001.0 - 6.7
01/06:00pm 26.0 21.4 14.7 49 6.8 SW 32 54 17 29 1000.7 - 6.7
01/05:45pm 26.6 21.3 15.2 49 6.9 WSW 37 57 20 31 1000.5 - 6.7
01/05:30pm 26.9 22.7 16.1 51 6.7 WSW 33 54 18 29 1000.0 - 6.7
01/05:15pm 26.4 23.2 16.4 54 6.2 WSW 28 46 15 25 - - -
01/05:00pm 26.5 25.6 16.8 55 6.1 W 17 33 9 18 999.4 - 6.7
01/04:45pm 27.3 25.7 16.5 51 6.7 WNW 20 33 11 18 999.0 - 6.7
01/04:30pm 27.6 25.6 16.5 50 6.9 W 22 33 12 18 998.8 - 6.7
01/04:15pm 28.1 26.2 16.7 50 7.1 WNW 22 35 12 19 998.9 - -
01/04:00pm 28.5 26.8 17.2 50 7.1 WSW 22 46 12 25 998.7 - 6.7
01/03:45pm 28.9 26.5 18.2 52 6.9 W 28 39 15 21 998.3 - 6.7
01/03:30pm 27.5 25.9 19.2 60 5.4 W 26 41 14 22 998.2 - 6.7
01/03:15pm 25.7 24.2 19.5 68 4.0 NW 26 44 14 24 998.2 - 6.7
01/03:00pm 22.9 19.3 17.7 72 3.2 NW 33 57 18 31 998.7 - 6.7
01/02:45pm 26.7 16.7 14.8 48 7.2 NW 61 107 33 58 998.7 - 6.7
01/02:30pm 33.1 26.9 13.9 31 11.7 WNW 39 57 21 31 997.6 - 0.0
01/02:15pm 33.6 27.1 14.1 30 12.0 WNW 41 61 22 33 998.2 - 0.0
01/02:00pm 33.4 28.6 14.7 32 11.6 WNW 33 54 18 29 998.6 - 0.0
01/01:45pm 32.8 26.8 14.3 32 11.4 WNW 39 52 21 28 998.7 - 0.0
01/01:30pm 33.2 25.7 14.0 31 11.8 WNW 46 65 25 35 999.2 - 0.0
01/01:15pm 33.5 25.7 14.2 31 11.9 WNW 48 72 26 39 999.2 - 0.0
01/01:00pm 33.8 26.5 14.4 31 12.0 NW 46 70 25 38 999.2 - 0.0
01/12:45pm 33.5 27.2 14.5 31 11.7 NW 41 61 22 33 999.3 - 0.0
01/12:30pm 33.3 27.0 14.7 32 11.5 NW 41 57 22 31 999.5 - 0.0
01/12:15pm 32.9 28.8 14.8 33 11.2 NNW 30 48 16 26 999.8 - 0.0
01/12:00pm 32.9 28.8 15.0 34 11.1 NW 30 46 16 25 1000.1 - 0.0
01/11:45am 32.3 26.4 14.6 34 10.9 NW 39 54 21 29 1000.4 - 0.0
01/11:30am 32.0 27.9 15.0 35 10.5 NW 30 48 16 26 1000.8 - 0.0
01/11:15am 31.4 26.8 14.7 36 10.3 NW 32 46 17 25 1001.2 - 0.0
01/11:00am 30.5 27.0 14.6 38 9.7 NNW 26 43 14 23 1001.6 - 0.0
01/10:45am 30.3 25.6 14.4 38 9.7 NNW 32 44 17 24 1001.8 - 0.0
01/10:30am 30.1 26.2 14.5 38 9.5 NNW 28 46 15 25 1002.2 - 0.0
01/10:15am 29.5 24.8 14.4 39 9.2 NW 32 50 17 27 1002.5 - 0.0
01/10:00am 29.0 24.7 14.4 41 8.9 NNW 30 50 16 27 1002.7 - 0.0
01/09:45am 28.5 23.8 14.4 42 8.5 NNW 32 46 17 25 1002.9 - 0.0
01/09:30am 27.8 23.5 14.3 43 8.1 NW 30 41 16 22 1003.0 - 0.0
01/09:15am 27.4 23.8 14.3 44 7.9 NW 26 43 14 23 1003.2 - 0.0
01/09:00am 26.9 24.1 14.2 45 7.6 NNW 22 37 12 20 1003.4 - 0.0
01/08:45am 26.4 23.9 14.0 46 7.4 NNW 20 33 11 18 1003.6 - 0.0
01/08:30am 26.0 23.4 13.7 46 7.3 NNW 20 32 11 17 1003.7 - 0.0
01/08:15am 25.7 22.7 13.7 47 7.1 NNW 22 35 12 19 1003.8 - 0.0
01/08:00am 25.2 22.2 13.7 49 6.8 NNW 22 33 12 18 1004.0 - 0.0
01/07:45am 24.7 22.0 13.5 49 6.6 NNW 20 33 11 18 1004.3 - 0.0
01/07:30am 24.0 20.9 13.4 51 6.2 NNW 22 35 12 19 1004.4 - 0.0
01/07:15am 23.2 20.4 13.3 53 5.8 NNW 20 30 11 16 1004.5 - 0.0
01/07:00am 22.3 20.0 13.1 56 5.3 NNW 17 26 9 14 1004.5 - 0.0
01/06:45am 21.2 18.5 12.8 58 4.8 N 19 26 10 14 1004.4 - 0.0
01/06:30am 21.1 18.1 12.4 57 4.9 N 20 26 11 14 1004.3 - 0.0
01/06:15am 22.0 18.9 12.3 54 5.5 N 20 28 11 15 1004.3 - 0.0
01/06:00am 22.4 18.2 12.5 53 5.7 NNW 26 32 14 17 1004.1 - 0.0
01/05:45am 22.5 19.1 12.4 52 5.8 NNW 22 28 12 15 1003.9 - 0.0
01/05:30am 22.7 18.5 12.3 52 5.9 NNW 26 32 14 17 1003.8 - 0.0
01/05:15am 23.0 18.1 12.4 51 6.1 NNW 30 33 16 18 1003.8 - 0.0
01/05:00am 22.7 18.1 12.4 52 5.9 NW 28 33 15 18 1003.9 - 0.0
01/04:45am 22.4 18.9 12.3 52 5.8 NW 22 28 12 15 1004.2 - 0.0
01/04:30am 23.4 20.4 12.5 50 6.3 WNW 20 30 11 16 1004.2 - 0.0
01/04:15am 23.3 18.9 12.9 52 6.0 NW 28 35 15 19 1004.4 - 0.0
01/04:00am 22.3 18.3 12.9 55 5.4 NW 26 33 14 18 1004.7 - 0.0
01/03:45am 21.8 18.7 13.4 59 4.9 WNW 22 26 12 14 1004.7 - 0.0
01/03:30am 21.6 19.3 14.0 62 4.4 WNW 19 26 10 14 1004.7 - 0.0
01/03:15am 21.8 20.0 14.5 63 4.3 WNW 17 20 9 11 1005.0 - 0.0
01/03:00am 21.5 19.3 14.5 64 4.1 WNW 19 22 10 12 1005.0 - 0.0
01/02:45am 21.5 19.4 15.1 67 3.8 WNW 20 26 11 14 1005.1 - 0.0
01/02:30am 21.1 19.3 16.0 72 3.1 WNW 20 26 11 14 1005.3 - 0.0
01/02:15am 20.5 19.2 16.7 79 2.3 WNW 19 22 10 12 1005.5 - 0.0
01/02:00am 20.4 19.2 17.0 81 2.1 WNW 19 26 10 14 1005.6 - 0.0
01/01:45am 20.5 20.2 17.3 82 2.0 NW 15 19 8 10 1005.7 - 0.0
01/01:30am 20.1 20.1 17.1 83 1.8 NNW 13 15 7 8 1005.7 - 0.0
01/01:15am 19.9 20.2 16.9 83 1.8 N 11 15 6 8 1005.8 - 0.0
01/01:00am 20.0 20.3 17.0 83 1.8 NNE 11 15 6 8 1006.0 - 0.0
01/12:45am 20.1 20.4 16.9 82 2.0 NE 11 15 6 8 1006.1 - 0.0
01/12:30am 20.3 20.9 16.7 80 2.2 ENE 9 13 5 7 1006.3 - 0.0
01/12:15am 20.5 20.6 16.4 77 2.5 NE 11 13 6 7 1006.5 - 0.0
01/12:00am 20.6 20.9 15.9 74 2.8 E 9 13 5 7 1006.3 - 0.0
 
Date/Time
EDT
Tmp

°C
App
Tmp
°C
Dew
Point
°C
Rel
Hum
%
Delta-T

°C
Wind Press
QNH
hPa
Press
MSL
hPa
Rain
since
9 am
mm
Dir
 
Spd
km/h
Gust
km/h
Spd
kts
Gust
kts
31/11:45pm 20.9 20.9 15.2 70 3.4 E 9 13 5 7 1006.6 - 0.0
31/11:30pm 21.3 20.7 14.7 66 3.9 ENE 11 15 6 8 1006.7 - 0.0
31/11:15pm 21.7 20.6 14.2 62 4.4 ENE 13 17 7 9 1006.8 - 0.0
31/11:00pm 22.4 21.3 14.2 59 4.8 ENE 13 19 7 10 1007.0 - 0.0
31/10:45pm 22.6 21.3 13.7 57 5.2 ENE 13 15 7 8 1007.3 - 0.0
31/10:30pm 22.7 21.8 13.6 56 5.3 NE 11 15 6 8 1007.4 - 0.0
31/10:15pm 22.6 21.1 13.0 54 5.5 NE 13 17 7 9 1007.6 - 0.0
31/10:00pm 22.8 21.5 12.5 52 5.9 NE 11 15 6 8 1007.8 - 0.0
31/09:45pm 23.3 21.6 12.6 51 6.2 NNE 13 20 7 11 1007.9 - 0.0
31/09:30pm 23.8 22.1 12.4 48 6.6 NE 13 22 7 12 1007.8 - 0.0
31/09:15pm 23.8 21.6 12.2 48 6.6 NE 15 24 8 13 1007.7 - 0.0
31/09:00pm 23.8 21.2 12.1 48 6.7 NE 17 28 9 15 1007.6 - 0.0
31/08:45pm 23.8 20.8 12.0 47 6.7 NE 19 30 10 16 1007.4 - 0.0
31/08:30pm 23.9 20.9 12.1 47 6.8 NE 19 28 10 15 1007.5 - 0.0
31/08:15pm 24.0 21.1 12.2 47 6.8 NE 19 26 10 14 1007.4 - 0.0
31/08:00pm 24.4 21.9 12.2 46 7.0 NE 17 24 9 13 1007.4 - 0.0
31/07:45pm 24.8 22.3 12.3 45 7.2 NE 17 26 9 14 1007.4 - 0.0
31/07:30pm 25.3 23.2 12.5 45 7.4 NE 15 26 8 14 1007.4 - 0.0
31/07:15pm 26.1 23.5 11.9 41 8.2 NE 17 30 9 16 1007.3 - 0.0
31/07:00pm 26.7 23.9 12.6 41 8.2 NE 19 26 10 14 1007.1 - 0.0
31/06:45pm 27.0 24.3 12.9 41 8.3 NE 19 28 10 15 1007.1 - 0.0
31/06:30pm 27.1 24.2 12.2 39 8.7 NE 19 26 10 14 1007.1 - 0.0
31/06:15pm 27.5 25.3 12.1 38 9.0 NE 15 30 8 16 1007.1 - 0.0
31/06:00pm 28.6 26.3 11.9 35 9.7 NE 15 22 8 12 1007.0 - 0.0
31/05:45pm 28.9 25.9 12.0 35 9.9 ENE 19 30 10 16 1006.9 - 0.0
31/05:30pm 28.8 26.2 13.2 38 9.3 ENE 19 28 10 15 1006.9 - 0.0
31/05:15pm 28.8 26.3 13.4 38 9.2 ENE 19 26 10 14 1007.0 - 0.0
31/05:00pm 28.3 25.2 12.3 37 9.4 NE 20 30 11 16 1007.0 - 0.0
31/04:45pm 29.5 26.5 11.9 33 10.3 ENE 19 28 10 15 1007.0 - 0.0
31/04:30pm 30.1 27.2 12.8 34 10.3 ENE 20 28 11 15 1007.0 - 0.0
31/04:15pm 29.5 27.0 13.4 37 9.6 ENE 19 28 10 15 1007.2 - 0.0
31/04:00pm 29.7 27.2 13.6 37 9.7 ENE 19 26 10 14 1007.4 - 0.0
31/03:45pm 30.7 29.2 14.1 36 10.1 ENE 15 26 8 14 1007.6 - 0.0
31/03:30pm 30.4 28.5 14.1 37 9.9 ENE 17 26 9 14 1007.8 - 0.0
31/03:15pm 31.2 28.2 13.8 34 10.6 NE 22 30 12 16 1007.9 - 0.0
31/03:00pm 32.2 29.6 15.0 35 10.7 ENE 22 33 12 18 1008.1 - 0.0
31/02:45pm 31.9 29.1 14.3 34 10.8 ENE 22 32 12 17 1008.3 - 0.0
31/02:30pm 31.8 29.6 14.8 35 10.5 ENE 20 28 11 15 1008.7 - 0.0
31/02:15pm 31.7 29.1 15.0 36 10.3 ENE 22 28 12 15 1009.0 - 0.0
31/02:00pm 31.9 29.2 14.6 35 10.6 ENE 22 28 12 15 1009.3 - 0.0
31/01:45pm 31.9 29.0 14.1 34 10.9 ENE 22 32 12 17 1009.5 - 0.0
31/01:30pm 32.5 28.9 10.5 26 12.8 NNE 20 32 11 17 1009.7 - 0.0
31/01:15pm 32.4 28.0 6.5 20 14.1 N 19 30 10 16 1010.0 - 0.0
31/01:00pm 32.2 29.0 8.6 23 13.3 N 15 32 8 17 1010.4 - 0.0
31/12:45pm 31.2 27.9 9.4 26 12.3 N 17 30 9 16 1010.7 - 0.0
31/12:30pm 30.5 27.6 9.6 27 11.8 - 15 26 8 14 1011.0 - 0.0
31/12:15pm 30.1 27.8 10.6 30 11.2 N 13 24 7 13 1011.3 - 0.0
31/12:00pm 29.3 26.6 10.5 31 10.7 N 15 26 8 14 1011.7 - 0.0
31/11:45am 28.9 26.2 10.5 31 10.5 N 15 28 8 15 1012.0 - 0.0
31/11:30am 28.3 25.8 11.0 34 9.9 N 15 24 8 13 1012.3 - 0.0
31/11:15am 27.8 25.8 11.6 36 9.4 NNW 13 22 7 12 1012.6 - 0.0
31/11:00am 27.2 24.7 11.1 36 9.2 NNW 15 22 8 12 1012.9 - 0.0
31/10:45am 26.7 25.2 11.9 39 8.5 NNW 11 19 6 10 1013.1 - 0.0
31/10:30am 26.1 25.2 12.5 42 7.9 NW 9 15 5 8 1013.2 - 0.0
31/10:15am 25.4 24.4 12.3 44 7.6 NW 9 15 5 8 1013.3 - 0.0
31/10:00am 24.6 24.1 12.6 47 6.9 NW 7 13 4 7 1013.4 - 0.0
31/09:45am 23.5 22.6 12.6 50 6.3 W 9 15 5 8 1013.5 - 0.0
31/09:30am 22.6 21.8 12.8 54 5.6 W 9 15 5 8 1013.5 - 0.0
31/09:15am 21.9 21.1 12.8 56 5.2 W 9 13 5 7 1013.6 - 0.0
31/09:00am 21.2 21.0 13.0 59 4.7 NW 6 9 3 5 1013.6 - 0.0
31/08:45am 20.3 19.9 13.1 63 4.1 NNW 7 9 4 5 1013.5 - 0.0
31/08:30am 19.9 19.9 13.5 66 3.7 NNW 6 9 3 5 1013.4 - 0.0
31/08:15am 19.3 19.7 13.8 70 3.2 NNW 4 9 2 5 1013.3 - 0.0
31/08:00am 18.2 18.7 14.0 76 2.4 NNW 4 9 2 5 1013.3 - 0.0
31/07:45am 17.4 18.0 14.2 81 1.8 N 4 6 2 3 1013.2 - 0.0
31/07:30am 16.0 16.7 13.5 85 1.4 NW 2 6 1 3 1013.2 - 0.0
31/07:15am 15.3 15.2 13.3 88 1.1 NW 6 7 3 4 1013.2 - 0.0
31/07:00am 14.1 14.0 12.2 88 1.0 W 4 6 2 3 1013.1 - 0.0
31/06:45am 13.4 13.5 11.4 88 1.1 S 2 6 1 3 1013.0 - 0.0
31/06:30am 13.3 12.5 11.1 86 1.2 SSE 6 7 3 4 1013.1 - 0.0
31/06:15am 13.5 12.6 11.2 86 1.2 SE 7 9 4 5 1013.0 - 0.0
31/06:00am 14.1 13.3 11.7 85 1.3 SE 7 11 4 6 1012.9 - 0.0
31/05:45am 14.9 14.4 12.5 85 1.3 SE 7 9 4 5 1012.9 - 0.0
31/05:30am 14.8 14.1 12.0 83 1.5 ESE 7 11 4 6 1012.8 - 0.0
31/05:15am 14.7 13.5 11.6 82 1.7 ESE 9 13 5 7 1012.8 - 0.0
31/05:00am 14.3 12.5 10.9 80 1.8 ESE 11 13 6 7 1012.7 - 0.0
31/04:45am 14.2 13.1 10.6 79 1.9 ESE 7 11 4 6 1012.6 - 0.0
31/04:30am 14.1 13.2 10.5 79 1.9 E 6 9 3 5 1012.6 - 0.0
31/04:15am 14.1 13.0 10.5 79 1.9 ESE 7 9 4 5 1012.6 - 0.0
31/04:00am 14.0 12.8 10.3 78 1.9 SE 7 9 4 5 1012.7 - 0.0
31/03:45am 14.0 13.3 10.2 78 2.0 SE 4 7 2 4 1012.7 - 0.0
31/03:30am 14.5 13.9 10.4 76 2.2 ESE 4 6 2 3 1012.6 - 0.0
31/03:15am 14.7 14.1 10.5 76 2.2 SE 4 6 2 3 1012.7 - 0.0
31/03:00am 14.8 14.3 10.8 77 2.1 SE 4 6 2 3 1012.8 - 0.0
31/02:45am 14.4 13.5 10.7 78 2.0 SSE 6 9 3 5 1012.9 - 0.0
31/02:30am 14.1 13.1 10.4 78 1.9 S 6 9 3 5 1013.1 - 0.0
31/02:15am 14.2 13.2 10.2 77 2.1 WSW 6 9 3 5 1013.1 - 0.0
31/02:00am 14.6 13.6 10.3 75 2.3 W 6 9 3 5 1013.3 - 0.0
31/01:45am 15.0 14.1 10.5 74 2.4 W 6 9 3 5 1013.4 - 0.0
31/01:30am 15.2 14.3 10.5 73 2.5 WNW 6 9 3 5 1013.6 - 0.0
31/01:15am 15.4 14.2 10.2 71 2.7 NW 7 9 4 5 1013.7 - 0.0
31/01:00am 16.1 15.0 10.6 70 2.9 NW 7 9 4 5 1013.8 - 0.0
31/12:45am 16.4 14.9 10.7 69 3.1 NNW 9 11 5 6 1014.0 - 0.0
31/12:30am 16.8 15.0 10.9 68 3.2 N 11 13 6 7 1014.0 - 0.0
31/12:15am 16.9 15.1 10.9 67 3.2 N 11 15 6 8 1013.9 - 0.0
31/12:00am 16.9 14.7 10.7 67 3.3 N 13 15 7 8 1013.9 - 0.0
 
Date/Time
EDT
Tmp

°C
App
Tmp
°C
Dew
Point
°C
Rel
Hum
%
Delta-T

°C
Wind Press
QNH
hPa
Press
MSL
hPa
Rain
since
9 am
mm
Dir
 
Spd
km/h
Gust
km/h
Spd
kts
Gust
kts
30/11:45pm 17.3 15.1 10.9 66 3.5 NNE 13 17 7 9 1014.0 - 0.0
30/11:30pm 17.6 15.4 10.9 65 3.6 NNE 13 17 7 9 1013.9 - 0.0
30/11:15pm 18.0 15.5 11.0 63 3.8 NE 15 19 8 10 1013.9 - 0.0
30/11:00pm 18.5 16.0 11.1 62 4.0 NE 15 19 8 10 1013.9 - 0.0
30/10:45pm 18.8 16.3 11.0 60 4.3 ENE 15 17 8 9 1013.9 - 0.0
30/10:30pm 19.1 17.0 11.0 59 4.4 ENE 13 19 7 10 1013.9 - 0.0
30/10:15pm 19.4 17.3 11.0 58 4.6 ENE 13 19 7 10 1013.9 - 0.0
30/10:00pm 19.7 17.5 10.9 57 4.8 ENE 13 17 7 9 1013.9 - 0.0
30/09:45pm 19.9 18.1 10.8 55 5.0 E 11 17 6 9 1013.8 - 0.0
30/09:30pm 20.1 17.9 10.8 55 5.1 E 13 19 7 10 1013.6 - 0.0
30/09:15pm 20.2 17.7 10.9 55 5.1 E 15 19 8 10 1013.5 - 0.0
30/09:00pm 20.4 17.8 10.8 54 5.3 ENE 15 20 8 11 1013.4 - 0.0
30/08:45pm 20.6 18.1 11.1 54 5.3 ENE 15 20 8 11 1013.2 - 0.0
30/08:30pm 20.9 18.5 11.3 54 5.3 E 15 19 8 10 1013.0 - 0.0
30/08:15pm 21.1 19.0 11.2 53 5.5 E 13 19 7 10 1012.8 - 0.0
30/08:00pm 21.4 18.9 11.2 52 5.7 E 15 20 8 11 1012.6 - 0.0
30/07:45pm 21.7 19.7 11.4 52 5.8 E 13 19 7 10 1012.4 - 0.0
30/07:30pm 22.2 20.2 11.6 51 6.0 E 13 17 7 9 1012.2 - 0.0
30/07:15pm 22.8 21.2 11.6 49 6.3 E 11 17 6 9 1011.9 - 0.0
30/07:00pm 23.4 21.4 11.5 47 6.7 E 13 20 7 11 1011.7 - 0.0
30/06:45pm 24.1 21.8 11.6 45 7.1 ESE 15 20 8 11 1011.5 - 0.0
30/06:30pm 25.3 23.3 11.6 42 7.8 ESE 13 19 7 10 1011.3 - 0.0
30/06:15pm 26.5 24.3 12.0 40 8.4 ESE 15 22 8 12 1011.1 - 0.0
30/06:00pm 27.8 25.7 11.1 35 9.6 SE 13 19 7 10 1010.8 - 0.0
30/05:45pm 29.5 26.7 8.4 26 11.7 S 13 20 7 11 1010.6 - 0.0
30/05:30pm 30.5 27.0 5.6 21 13.2 W 13 20 7 11 1010.5 - 0.0
30/05:15pm 30.4 27.3 5.6 21 13.1 WSW 11 19 6 10 1010.5 - 0.0
30/05:00pm 30.4 27.0 5.9 21 13.0 WSW 13 22 7 12 1010.6 - 0.0
30/04:45pm 29.9 26.5 5.7 21 12.8 W 13 20 7 11 1010.6 - 0.0
30/04:30pm 29.9 25.1 5.5 21 12.9 W 20 35 11 19 1010.7 - 0.0
30/04:15pm 29.9 26.1 6.0 22 12.7 WNW 15 28 8 15 1010.7 - 0.0
30/04:00pm 29.8 26.8 6.0 22 12.7 W 11 22 6 12 1010.9 - 0.0
30/03:45pm 29.3 24.8 6.2 23 12.3 W 19 33 10 18 1011.1 - 0.0
30/03:30pm 29.1 24.5 6.5 24 12.1 WNW 20 35 11 19 1011.3 - 0.0
30/03:15pm 28.9 24.4 7.1 25 11.7 W 20 33 11 18 1011.6 - 0.0
30/03:00pm 28.6 24.4 7.3 26 11.5 W 19 32 10 17 1011.8 - 0.0
30/02:45pm 28.2 24.6 8.2 28 10.9 WSW 17 33 9 18 1012.1 - 0.0
30/02:30pm 27.8 24.2 8.5 29 10.6 WNW 17 26 9 14 1012.5 - 0.0
30/02:15pm 27.6 24.9 8.8 30 10.4 W 13 28 7 15 1012.6 - 0.0
30/02:00pm 27.2 24.0 8.3 30 10.3 WNW 15 28 8 15 1012.8 - 0.0
30/01:45pm 27.2 23.6 8.2 30 10.3 WNW 17 33 9 18 1012.8 - 0.0
30/01:30pm 26.8 22.6 7.4 29 10.4 WNW 19 32 10 17 1013.0 - 0.0
30/01:15pm 26.7 22.9 7.7 30 10.2 NW 17 30 9 16 1013.1 - 0.0
30/01:00pm 26.6 22.9 7.8 30 10.1 WNW 17 32 9 17 1013.3 - 0.0
30/12:45pm 26.7 22.8 8.7 32 9.9 WNW 19 35 10 19 1013.4 - 0.0
30/12:30pm 26.2 22.6 8.3 32 9.7 W 17 37 9 20 1013.7 - 0.0
30/12:15pm 25.9 20.8 7.7 31 9.7 W 24 35 13 19 1013.9 - 0.0
30/12:00pm 25.6 21.5 8.5 33 9.3 W 20 33 11 18 1014.2 - 0.0
30/11:45am 25.4 22.4 9.3 36 8.8 W 15 33 8 18 1014.5 - 0.0
30/11:30am 25.2 22.1 8.9 35 8.9 W 15 28 8 15 1014.7 - 0.0
30/11:15am 25.1 22.3 9.9 38 8.4 WNW 15 26 8 14 1014.7 - 0.0
30/11:00am 25.4 23.1 10.6 39 8.3 WNW 13 26 7 14 1014.7 - 0.0
30/10:45am 24.8 23.0 10.8 41 7.9 WNW 11 22 6 12 1014.9 - 0.0
30/10:30am 24.2 23.8 12.9 49 6.6 WNW 7 17 4 9 1015.1 - 0.0
30/10:15am 23.0 22.4 13.6 55 5.5 WNW 9 15 5 8 1015.3 - 0.0
30/10:00am 22.5 22.6 14.4 60 4.8 WNW 7 13 4 7 1015.3 - 0.0
30/09:45am 21.8 22.2 15.2 66 3.9 WNW 7 15 4 8 1015.4 - 0.0
30/09:30am 20.7 20.6 14.9 69 3.4 W 9 15 5 8 1015.4 - 0.0
30/09:15am 20.0 20.3 14.9 72 3.0 W 7 13 4 7 1015.5 - 0.0
30/09:00am 19.1 18.9 14.8 76 2.5 W 9 13 5 7 1015.6 - 0.0
30/08:45am 18.1 17.5 14.6 80 2.0 W 11 17 6 9 1015.7 - 0.0
30/08:30am 17.5 16.9 14.7 83 1.6 W 11 15 6 8 1015.7 - 0.0
30/08:15am 16.9 16.2 14.4 85 1.4 W 11 15 6 8 1015.6 - 0.0
30/08:00am 16.6 15.6 14.5 87 1.2 W 13 17 7 9 1015.6 - 0.0
30/07:45am 16.1 15.4 14.4 90 1.0 W 11 17 6 9 1015.5 - 0.0
30/07:30am 15.7 15.0 14.2 91 0.9 W 11 15 6 8 1015.4 - 0.0
30/07:15am 15.1 14.2 13.7 91 0.8 W 11 15 6 8 1015.3 - 0.0
30/07:00am 14.5 13.0 13.2 92 0.7 WSW 13 15 7 8 1015.2 - 0.0
30/06:45am 14.1 12.5 12.8 92 0.7 WSW 13 15 7 8 1015.2 - 0.0
30/06:30am 13.2 11.7 11.9 92 0.7 WSW 11 13 6 7 1015.1 - 0.0
30/06:15am 12.6 11.3 11.2 91 0.7 WSW 9 9 5 5 1014.9 - 0.0
30/06:00am 12.6 11.8 11.1 91 0.8 W 6 9 3 5 1014.9 - 0.0
30/05:45am 12.6 11.8 11.2 91 0.7 WNW 6 6 3 3 1014.9 - 0.0
30/05:30am 12.6 12.2 11.1 91 0.8 NW 4 6 2 3 1014.8 - 0.0
30/05:15am 12.8 12.8 11.3 91 0.8 NW 2 6 1 3 1014.8 - 0.0
30/05:00am 12.9 12.6 11.4 91 0.8 W 4 6 2 3 1014.8 - 0.0
30/04:45am 13.2 12.9 11.6 90 0.9 NW 4 6 2 3 1014.8 - 0.0
30/04:30am 13.4 13.2 11.8 90 0.9 W 4 6 2 3 1014.9 - 0.0
30/04:15am 13.6 13.5 12.0 90 0.9 W 4 6 2 3 1015.1 - 0.0
30/04:00am 13.7 13.2 12.1 90 0.9 WNW 6 6 3 3 1015.2 - 0.0
30/03:45am 13.6 13.5 12.0 90 0.9 NW 4 6 2 3 1015.3 - 0.0
30/03:30am 13.8 13.7 12.1 89 0.9 NNW 4 6 2 3 1015.4 - 0.0
30/03:15am 13.9 13.4 12.2 89 0.9 NW 6 6 3 3 1015.6 - 0.0
30/03:00am 13.8 13.1 12.1 89 0.9 NNW 7 9 4 5 1015.7 - 0.0
30/02:45am 13.5 12.7 11.7 89 1.0 NNW 7 9 4 5 1015.8 - 0.0
30/02:30am 13.7 12.6 11.8 88 1.0 NNW 9 11 5 6 1015.9 - 0.0
30/02:15am 13.9 12.8 11.9 88 1.1 NNW 9 13 5 7 1016.0 - 0.0
30/02:00am 14.1 13.0 12.0 87 1.1 NNW 9 11 5 6 1016.2 - 0.0
30/01:45am 14.6 13.6 12.4 87 1.2 N 9 13 5 7 1016.3 - 0.0
30/01:30am 14.9 14.1 12.8 87 1.2 N 9 13 5 7 1016.4 - 0.0
30/01:15am 14.8 14.2 12.4 85 1.3 N 7 13 4 7 1016.6 - 0.0
30/01:00am 15.1 14.6 12.6 85 1.4 N 7 13 4 7 1016.8 - 0.0
30/12:45am 15.5 14.7 12.9 84 1.4 N 9 13 5 7 1017.0 - 0.0
30/12:30am 15.8 14.7 13.0 83 1.6 - 11 15 6 8 1017.1 - 0.0
30/12:15am 16.1 14.6 13.2 83 1.6 N 13 17 7 9 1017.2 - 0.0
30/12:00am 16.5 15.5 13.4 82 1.8 N 11 19 6 10 1017.2 - 0.0
 
Date/Time
EDT
Tmp

°C
App
Tmp
°C
Dew
Point
°C
Rel
Hum
%
Delta-T

°C
Wind Press
QNH
hPa
Press
MSL
hPa
Rain
since
9 am
mm
Dir
 
Spd
km/h
Gust
km/h
Spd
kts
Gust
kts
29/11:45pm 16.8 15.4 13.5 81 1.9 - 13 19 7 10 1017.2 - 0.0
29/11:30pm 17.2 16.3 13.7 80 2.0 - 11 19 6 10 1017.2 - 0.0
29/11:15pm 17.4 16.2 13.9 80 2.0 NNE 13 22 7 12 1017.2 - 0.0
29/11:00pm 17.4 15.8 13.9 80 2.0 NNE 15 26 8 14 1017.2 - 0.0
29/10:45pm 17.2 15.5 13.7 80 2.0 N 15 24 8 13 1017.1 - 0.0
29/10:30pm 16.9 14.8 13.5 80 1.9 N 17 24 9 13 1017.1 - 0.0
29/10:15pm 16.7 14.9 13.3 80 1.9 NNE 15 22 8 12 1017.1 - 0.0
29/10:00pm 16.8 15.0 13.2 79 2.0 NNE 15 20 8 11 1017.1 - 0.0
29/09:45pm 17.0 15.5 13.2 78 2.1 NNE 13 22 7 12 1017.2 - 0.0
29/09:30pm 17.3 15.5 13.3 77 2.3 NNE 15 22 8 12 1017.2 - 0.0
29/09:15pm 17.5 15.3 13.4 77 2.3 NNE 17 24 9 13 1017.1 - 0.0
29/09:00pm 17.7 16.0 13.5 76 2.4 NNE 15 22 8 12 1017.0 - 0.0
29/08:45pm 17.8 15.7 13.5 76 2.4 NE 17 26 9 14 1016.9 - 0.0
29/08:30pm 17.9 15.7 13.4 75 2.6 NE 17 26 9 14 1016.8 - 0.0
29/08:15pm 17.9 16.2 13.5 75 2.5 NNE 15 22 8 12 1016.6 - 0.0
29/08:00pm 18.0 16.7 13.6 75 2.5 NE 13 20 7 11 1016.5 - 0.0

Latest Capital City Observations: Canberra | Sydney | Melbourne | Brisbane | Adelaide | Perth | Hobart | Darwin

Other Formats:

Comma delimited format used in spreadsheet applications
http://www.bom.gov.au/fwo/IDN60901/IDN60901.95757.axf

JavaScript Object Notation format (JSON) in row-major order
http://www.bom.gov.au/fwo/IDN60901/IDN60901.95757.json